sensor_id;sensor_type;location;lat;lon;timestamp;temperature;humidity
35645;DHT22;21764;52.042;6.830;2023-04-01T00:03:07;10.00;99.90
35645;DHT22;21764;52.042;6.830;2023-04-01T00:08:08;10.00;99.90
35645;DHT22;21764;52.042;6.830;2023-04-01T00:13:09;10.00;99.90
35645;DHT22;21764;52.042;6.830;2023-04-01T00:18:09;10.00;99.90
35645;DHT22;21764;52.042;6.830;2023-04-01T00:23:10;10.10;99.90
35645;DHT22;21764;52.042;6.830;2023-04-01T00:28:11;10.00;99.90
35645;DHT22;21764;52.042;6.830;2023-04-01T00:33:12;10.10;99.90
35645;DHT22;21764;52.042;6.830;2023-04-01T00:38:12;10.10;99.90
35645;DHT22;21764;52.042;6.830;2023-04-01T00:43:18;10.10;99.90
35645;DHT22;21764;52.042;6.830;2023-04-01T00:48:23;10.10;99.90
35645;DHT22;21764;52.042;6.830;2023-04-01T00:53:26;10.00;99.90
35645;DHT22;21764;52.042;6.830;2023-04-01T00:58:32;10.00;99.90
35645;DHT22;21764;52.042;6.830;2023-04-01T01:03:34;9.90;99.90
35645;DHT22;21764;52.042;6.830;2023-04-01T01:14:09;9.90;99.90
35645;DHT22;21764;52.042;6.830;2023-04-01T01:19:39;9.80;99.90
35645;DHT22;21764;52.042;6.830;2023-04-01T01:35:37;9.80;99.90
35645;DHT22;21764;52.042;6.830;2023-04-01T01:40:43;9.80;99.90
35645;DHT22;21764;52.042;6.830;2023-04-01T01:45:48;9.80;99.90
35645;DHT22;21764;52.042;6.830;2023-04-01T01:50:50;9.80;99.90
35645;DHT22;21764;52.042;6.830;2023-04-01T01:55:51;9.80;99.90
35645;DHT22;21764;52.042;6.830;2023-04-01T02:01:04;9.80;99.90
35645;DHT22;21764;52.042;6.830;2023-04-01T02:06:08;9.80;99.90
35645;DHT22;21764;52.042;6.830;2023-04-01T02:11:12;9.80;99.90
35645;DHT22;21764;52.042;6.830;2023-04-01T02:16:18;9.80;99.90
35645;DHT22;21764;52.042;6.830;2023-04-01T02:21:22;9.80;99.90
35645;DHT22;21764;52.042;6.830;2023-04-01T02:26:26;9.80;99.90
35645;DHT22;21764;52.042;6.830;2023-04-01T02:31:27;9.80;99.90
35645;DHT22;21764;52.042;6.830;2023-04-01T02:36:28;9.80;99.90
35645;DHT22;21764;52.042;6.830;2023-04-01T02:41:29;9.80;99.90
35645;DHT22;21764;52.042;6.830;2023-04-01T02:46:30;9.80;99.90
35645;DHT22;21764;52.042;6.830;2023-04-01T02:51:32;9.90;99.90
35645;DHT22;21764;52.042;6.830;2023-04-01T02:56:32;9.90;99.90
35645;DHT22;21764;52.042;6.830;2023-04-01T03:01:33;9.90;99.90
35645;DHT22;21764;52.042;6.830;2023-04-01T03:06:34;10.00;99.90
35645;DHT22;21764;52.042;6.830;2023-04-01T03:11:35;10.00;99.90
35645;DHT22;21764;52.042;6.830;2023-04-01T03:16:36;9.90;99.90
35645;DHT22;21764;52.042;6.830;2023-04-01T03:21:36;9.90;99.90
35645;DHT22;21764;52.042;6.830;2023-04-01T03:26:37;10.00;99.90
35645;DHT22;21764;52.042;6.830;2023-04-01T03:31:38;9.90;99.90
35645;DHT22;21764;52.042;6.830;2023-04-01T03:36:38;10.00;99.90
35645;DHT22;21764;52.042;6.830;2023-04-01T03:41:39;10.00;99.90
35645;DHT22;21764;52.042;6.830;2023-04-01T03:46:40;10.00;99.90
35645;DHT22;21764;52.042;6.830;2023-04-01T03:51:42;9.90;99.90
35645;DHT22;21764;52.042;6.830;2023-04-01T03:56:43;9.90;99.90
35645;DHT22;21764;52.042;6.830;2023-04-01T04:01:45;9.90;99.90
35645;DHT22;21764;52.042;6.830;2023-04-01T04:06:46;9.90;99.90
35645;DHT22;21764;52.042;6.830;2023-04-01T04:11:47;9.90;99.90
35645;DHT22;21764;52.042;6.830;2023-04-01T04:16:48;9.90;99.90
35645;DHT22;21764;52.042;6.830;2023-04-01T04:21:49;9.90;99.90
35645;DHT22;21764;52.042;6.830;2023-04-01T04:26:49;9.90;99.90
35645;DHT22;21764;52.042;6.830;2023-04-01T04:31:50;9.90;99.90
35645;DHT22;21764;52.042;6.830;2023-04-01T04:36:51;9.90;99.90
35645;DHT22;21764;52.042;6.830;2023-04-01T04:41:51;9.90;99.90
35645;DHT22;21764;52.042;6.830;2023-04-01T04:46:52;9.90;99.90
35645;DHT22;21764;52.042;6.830;2023-04-01T04:51:53;9.90;99.90
35645;DHT22;21764;52.042;6.830;2023-04-01T04:56:54;9.90;99.90
35645;DHT22;21764;52.042;6.830;2023-04-01T05:01:55;9.90;99.90
35645;DHT22;21764;52.042;6.830;2023-04-01T05:06:55;9.90;99.90
35645;DHT22;21764;52.042;6.830;2023-04-01T05:11:56;9.90;99.90
35645;DHT22;21764;52.042;6.830;2023-04-01T05:16:56;9.90;99.90
35645;DHT22;21764;52.042;6.830;2023-04-01T05:21:57;9.90;99.90
35645;DHT22;21764;52.042;6.830;2023-04-01T05:26:58;9.90;99.90
35645;DHT22;21764;52.042;6.830;2023-04-01T05:31:59;9.90;99.90
35645;DHT22;21764;52.042;6.830;2023-04-01T05:36:59;9.90;99.90
35645;DHT22;21764;52.042;6.830;2023-04-01T05:42:00;9.90;99.90
35645;DHT22;21764;52.042;6.830;2023-04-01T05:47:01;9.90;99.90
35645;DHT22;21764;52.042;6.830;2023-04-01T05:52:02;9.90;99.90
35645;DHT22;21764;52.042;6.830;2023-04-01T05:57:03;9.90;99.90
35645;DHT22;21764;52.042;6.830;2023-04-01T06:02:03;10.00;99.90
35645;DHT22;21764;52.042;6.830;2023-04-01T06:07:15;10.00;99.90
35645;DHT22;21764;52.042;6.830;2023-04-01T06:23:19;10.00;99.90
35645;DHT22;21764;52.042;6.830;2023-04-01T06:40:06;10.10;99.90
35645;DHT22;21764;52.042;6.830;2023-04-01T06:50:26;10.10;99.90
35645;DHT22;21764;52.042;6.830;2023-04-01T06:55:48;10.20;99.90
35645;DHT22;21764;52.042;6.830;2023-04-01T07:00:56;10.30;99.90
35645;DHT22;21764;52.042;6.830;2023-04-01T07:06:04;10.50;99.90
35645;DHT22;21764;52.042;6.830;2023-04-01T07:11:36;10.60;99.90
35645;DHT22;21764;52.042;6.830;2023-04-01T07:16:54;10.90;99.90
35645;DHT22;21764;52.042;6.830;2023-04-01T07:22:03;10.80;99.90
35645;DHT22;21764;52.042;6.830;2023-04-01T07:27:10;10.90;99.90
35645;DHT22;21764;52.042;6.830;2023-04-01T07:32:39;11.20;99.90
35645;DHT22;21764;52.042;6.830;2023-04-01T07:48:31;11.90;99.90
35645;DHT22;21764;52.042;6.830;2023-04-01T07:59:14;12.20;99.90
35645;DHT22;21764;52.042;6.830;2023-04-01T08:04:28;12.10;99.90
35645;DHT22;21764;52.042;6.830;2023-04-01T08:09:38;12.20;99.90
35645;DHT22;21764;52.042;6.830;2023-04-01T08:25:28;12.00;99.90
35645;DHT22;21764;52.042;6.830;2023-04-01T08:30:40;12.00;99.90
35645;DHT22;21764;52.042;6.830;2023-04-01T08:36:03;12.20;99.90
35645;DHT22;21764;52.042;6.830;2023-04-01T09:02:12;12.40;99.90
35645;DHT22;21764;52.042;6.830;2023-04-01T09:07:29;12.40;99.90
35645;DHT22;21764;52.042;6.830;2023-04-01T09:23:59;13.10;99.90
35645;DHT22;21764;52.042;6.830;2023-04-01T09:29:23;13.30;99.90
35645;DHT22;21764;52.042;6.830;2023-04-01T09:34:51;13.50;99.90
35645;DHT22;21764;52.042;6.830;2023-04-01T09:50:52;13.70;99.90
35645;DHT22;21764;52.042;6.830;2023-04-01T10:02:03;13.40;99.90
35645;DHT22;21764;52.042;6.830;2023-04-01T10:23:27;13.50;99.90
35645;DHT22;21764;52.042;6.830;2023-04-01T10:34:05;13.10;99.90
35645;DHT22;21764;52.042;6.830;2023-04-01T11:38:31;16.70;99.90
35645;DHT22;21764;52.042;6.830;2023-04-01T11:43:39;16.60;99.90
35645;DHT22;21764;52.042;6.830;2023-04-01T12:10:19;15.30;99.90
35645;DHT22;21764;52.042;6.830;2023-04-01T12:21:26;15.20;99.90
35645;DHT22;21764;52.042;6.830;2023-04-01T12:32:02;14.80;99.90
35645;DHT22;21764;52.042;6.830;2023-04-01T12:37:51;14.90;99.90
35645;DHT22;21764;52.042;6.830;2023-04-01T12:53:14;13.80;99.90
35645;DHT22;21764;52.042;6.830;2023-04-01T13:30:49;13.80;99.90
35645;DHT22;21764;52.042;6.830;2023-04-01T13:36:28;13.40;99.90
35645;DHT22;21764;52.042;6.830;2023-04-01T13:46:48;13.00;99.90
35645;DHT22;21764;52.042;6.830;2023-04-01T14:08:36;13.20;99.90
35645;DHT22;21764;52.042;6.830;2023-04-01T14:14:04;13.20;99.90
35645;DHT22;21764;52.042;6.830;2023-04-01T14:35:38;13.10;99.90
35645;DHT22;21764;52.042;6.830;2023-04-01T14:51:39;12.30;99.90
35645;DHT22;21764;52.042;6.830;2023-04-01T14:56:47;12.30;99.90
35645;DHT22;21764;52.042;6.830;2023-04-01T15:38:53;12.10;99.90
35645;DHT22;21764;52.042;6.830;2023-04-01T15:43:55;12.00;99.90
35645;DHT22;21764;52.042;6.830;2023-04-01T15:54:20;11.90;99.90
35645;DHT22;21764;52.042;6.830;2023-04-01T16:15:44;12.00;99.90
35645;DHT22;21764;52.042;6.830;2023-04-01T16:26:50;11.50;99.90
35645;DHT22;21764;52.042;6.830;2023-04-01T16:37:20;11.10;99.90
35645;DHT22;21764;52.042;6.830;2023-04-01T16:47:52;11.00;99.90
35645;DHT22;21764;52.042;6.830;2023-04-01T16:53:08;10.90;99.90
35645;DHT22;21764;52.042;6.830;2023-04-01T16:58:21;10.80;99.90
35645;DHT22;21764;52.042;6.830;2023-04-01T17:03:33;10.70;99.90
35645;DHT22;21764;52.042;6.830;2023-04-01T17:09:51;10.50;99.90
35645;DHT22;21764;52.042;6.830;2023-04-01T17:14:59;10.40;99.90
35645;DHT22;21764;52.042;6.830;2023-04-01T17:25:20;10.50;99.90
35645;DHT22;21764;52.042;6.830;2023-04-01T17:30:35;10.40;99.90
35645;DHT22;21764;52.042;6.830;2023-04-01T17:36:02;10.30;99.90
35645;DHT22;21764;52.042;6.830;2023-04-01T17:51:40;10.10;99.90
35645;DHT22;21764;52.042;6.830;2023-04-01T18:07:45;9.90;99.90
35645;DHT22;21764;52.042;6.830;2023-04-01T18:24:11;9.70;99.90
35645;DHT22;21764;52.042;6.830;2023-04-01T18:39:37;9.60;99.90
35645;DHT22;21764;52.042;6.830;2023-04-01T18:44:52;9.50;99.90
35645;DHT22;21764;52.042;6.830;2023-04-01T18:55:28;9.30;99.90
35645;DHT22;21764;52.042;6.830;2023-04-01T19:00:52;9.20;99.90
35645;DHT22;21764;52.042;6.830;2023-04-01T19:05:56;9.20;99.90
35645;DHT22;21764;52.042;6.830;2023-04-01T19:11:13;9.10;99.90
35645;DHT22;21764;52.042;6.830;2023-04-01T19:32:12;9.00;99.90
35645;DHT22;21764;52.042;6.830;2023-04-01T19:37:44;8.90;99.90
35645;DHT22;21764;52.042;6.830;2023-04-01T19:48:43;8.70;99.90
35645;DHT22;21764;52.042;6.830;2023-04-01T19:53:52;8.50;99.90
35645;DHT22;21764;52.042;6.830;2023-04-01T19:59:23;8.40;99.90
35645;DHT22;21764;52.042;6.830;2023-04-01T20:04:42;8.50;99.90
35645;DHT22;21764;52.042;6.830;2023-04-01T20:10:06;8.40;99.90
35645;DHT22;21764;52.042;6.830;2023-04-01T20:15:31;8.30;99.90
35645;DHT22;21764;52.042;6.830;2023-04-01T20:20:34;8.10;99.90
35645;DHT22;21764;52.042;6.830;2023-04-01T20:25:56;8.00;99.90
35645;DHT22;21764;52.042;6.830;2023-04-01T20:36:30;8.00;99.90
35645;DHT22;21764;52.042;6.830;2023-04-01T20:57:16;7.90;99.90
35645;DHT22;21764;52.042;6.830;2023-04-01T21:07:56;7.80;99.90
35645;DHT22;21764;52.042;6.830;2023-04-01T21:24:23;7.80;99.90
35645;DHT22;21764;52.042;6.830;2023-04-01T21:29:56;7.60;99.90
35645;DHT22;21764;52.042;6.830;2023-04-01T21:40:32;7.60;99.90
35645;DHT22;21764;52.042;6.830;2023-04-01T22:13:16;7.30;99.90
35645;DHT22;21764;52.042;6.830;2023-04-01T22:18:24;7.40;99.90
35645;DHT22;21764;52.042;6.830;2023-04-01T22:23:51;7.20;99.90
35645;DHT22;21764;52.042;6.830;2023-04-01T22:39:44;7.30;99.90
35645;DHT22;21764;52.042;6.830;2023-04-01T22:56:20;7.00;99.90
35645;DHT22;21764;52.042;6.830;2023-04-01T23:01:25;7.00;99.90
35645;DHT22;21764;52.042;6.830;2023-04-01T23:06:39;6.90;99.90
35645;DHT22;21764;52.042;6.830;2023-04-01T23:12:04;6.80;99.90
35645;DHT22;21764;52.042;6.830;2023-04-01T23:32:53;6.80;99.90
35645;DHT22;21764;52.042;6.830;2023-04-01T23:38:16;6.70;99.90
35645;DHT22;21764;52.042;6.830;2023-04-01T23:43:26;6.70;99.90
35645;DHT22;21764;52.042;6.830;2023-04-01T23:48:32;6.60;99.90
35645;DHT22;21764;52.042;6.830;2023-04-01T23:54:19;6.50;99.90
35645;DHT22;21764;52.042;6.830;2023-04-01T23:59:33;6.40;99.90
